sensor_id;sensor_type;location;lat;lon;timestamp;pressure;altitude;pressure_sealevel;temperature;humidity
54994;BME280;40891;47.242;8.648;2022-08-20T00:00:46;96501.94;;;16.64;100.00
54994;BME280;40891;47.242;8.648;2022-08-20T00:03:34;96491.47;;;16.65;100.00
54994;BME280;40891;47.242;8.648;2022-08-20T00:08:28;96500.31;;;16.58;100.00
54994;BME280;40891;47.242;8.648;2022-08-20T00:10:55;96498.47;;;16.55;100.00
54994;BME280;40891;47.242;8.648;2022-08-20T00:13:24;96496.94;;;16.54;100.00
54994;BME280;40891;47.242;8.648;2022-08-20T00:15:50;96499.44;;;16.52;100.00
54994;BME280;40891;47.242;8.648;2022-08-20T00:18:16;96502.72;;;16.50;100.00
54994;BME280;40891;47.242;8.648;2022-08-20T00:20:44;96504.88;;;16.55;100.00
54994;BME280;40891;47.242;8.648;2022-08-20T00:23:10;96495.19;;;16.56;100.00
54994;BME280;40891;47.242;8.648;2022-08-20T00:25:36;96485.72;;;16.54;100.00
54994;BME280;40891;47.242;8.648;2022-08-20T00:28:02;96492.28;;;16.51;100.00
54994;BME280;40891;47.242;8.648;2022-08-20T00:30:29;96498.34;;;16.49;100.00
54994;BME280;40891;47.242;8.648;2022-08-20T00:32:59;96495.56;;;16.49;100.00
54994;BME280;40891;47.242;8.648;2022-08-20T00:35:29;96497.34;;;16.47;100.00
54994;BME280;40891;47.242;8.648;2022-08-20T00:37:56;96496.56;;;16.46;100.00
54994;BME280;40891;47.242;8.648;2022-08-20T00:40:30;96502.16;;;16.46;100.00
54994;BME280;40891;47.242;8.648;2022-08-20T00:42:58;96495.97;;;16.42;100.00
54994;BME280;40891;47.242;8.648;2022-08-20T00:45:26;96509.25;;;16.42;100.00
54994;BME280;40891;47.242;8.648;2022-08-20T00:47:52;96500.81;;;16.42;100.00
54994;BME280;40891;47.242;8.648;2022-08-20T00:50:23;96500.13;;;16.47;100.00
54994;BME280;40891;47.242;8.648;2022-08-20T00:52:51;96501.72;;;16.68;100.00
54994;BME280;40891;47.242;8.648;2022-08-20T00:55:19;96499.34;;;16.61;100.00
54994;BME280;40891;47.242;8.648;2022-08-20T00:57:49;96499.91;;;16.65;100.00
54994;BME280;40891;47.242;8.648;2022-08-20T01:00:21;96495.53;;;16.64;100.00
54994;BME280;40891;47.242;8.648;2022-08-20T01:02:48;96496.59;;;16.66;100.00
54994;BME280;40891;47.242;8.648;2022-08-20T01:05:15;96499.63;;;16.63;100.00
54994;BME280;40891;47.242;8.648;2022-08-20T01:07:41;96501.72;;;16.68;100.00
54994;BME280;40891;47.242;8.648;2022-08-20T01:10:13;96506.47;;;16.62;100.00
54994;BME280;40891;47.242;8.648;2022-08-20T01:12:41;96498.94;;;16.68;100.00
54994;BME280;40891;47.242;8.648;2022-08-20T01:15:10;96507.63;;;16.70;100.00
54994;BME280;40891;47.242;8.648;2022-08-20T01:17:41;96502.28;;;16.72;100.00
54994;BME280;40891;47.242;8.648;2022-08-20T01:20:13;96503.34;;;16.74;100.00
54994;BME280;40891;47.242;8.648;2022-08-20T01:25:51;96502.44;;;16.83;100.00
54994;BME280;40891;47.242;8.648;2022-08-20T01:28:17;96503.28;;;16.89;100.00
54994;BME280;40891;47.242;8.648;2022-08-20T01:30:44;96507.44;;;16.93;100.00
54994;BME280;40891;47.242;8.648;2022-08-20T01:33:10;96501.03;;;16.93;100.00
54994;BME280;40891;47.242;8.648;2022-08-20T01:35:40;96510.72;;;16.92;100.00
54994;BME280;40891;47.242;8.648;2022-08-20T01:38:06;96506.22;;;17.00;100.00
54994;BME280;40891;47.242;8.648;2022-08-20T01:43:13;96499.63;;;17.03;100.00
54994;BME280;40891;47.242;8.648;2022-08-20T01:45:38;96502.16;;;17.01;100.00
54994;BME280;40891;47.242;8.648;2022-08-20T01:48:04;96502.16;;;17.01;100.00
54994;BME280;40891;47.242;8.648;2022-08-20T01:50:30;96502.91;;;17.01;100.00
54994;BME280;40891;47.242;8.648;2022-08-20T01:55:29;96511.75;;;16.94;100.00
54994;BME280;40891;47.242;8.648;2022-08-20T01:57:55;96510.22;;;16.93;100.00
54994;BME280;40891;47.242;8.648;2022-08-20T02:00:21;96515.34;;;16.95;100.00
54994;BME280;40891;47.242;8.648;2022-08-20T02:02:47;96502.88;;;16.96;100.00
54994;BME280;40891;47.242;8.648;2022-08-20T02:05:13;96497.25;;;16.96;100.00
54994;BME280;40891;47.242;8.648;2022-08-20T02:07:39;96515.34;;;16.95;100.00
54994;BME280;40891;47.242;8.648;2022-08-20T02:10:07;96512.25;;;16.93;100.00
54994;BME280;40891;47.242;8.648;2022-08-20T02:12:32;96516.31;;;16.92;100.00
54994;BME280;40891;47.242;8.648;2022-08-20T02:15:00;96507.16;;;16.91;100.00
54994;BME280;40891;47.242;8.648;2022-08-20T02:17:26;96505.59;;;16.90;100.00
54994;BME280;40891;47.242;8.648;2022-08-20T02:20:00;96506.84;;;16.89;100.00
54994;BME280;40891;47.242;8.648;2022-08-20T02:24:58;96503.56;;;16.91;100.00
54994;BME280;40891;47.242;8.648;2022-08-20T02:27:23;96503.56;;;16.91;100.00
54994;BME280;40891;47.242;8.648;2022-08-20T02:29:49;96499.91;;;17.05;100.00
54994;BME280;40891;47.242;8.648;2022-08-20T02:32:15;96508.47;;;16.96;100.00
54994;BME280;40891;47.242;8.648;2022-08-20T02:34:41;96503.28;;;16.89;100.00
54994;BME280;40891;47.242;8.648;2022-08-20T02:37:07;96494.28;;;16.85;100.00
54994;BME280;40891;47.242;8.648;2022-08-20T02:39:33;96492.53;;;16.87;100.00
54994;BME280;40891;47.242;8.648;2022-08-20T02:41:59;96492.75;;;16.84;100.00
54994;BME280;40891;47.242;8.648;2022-08-20T02:44:26;96491.19;;;16.83;100.00
54994;BME280;40891;47.242;8.648;2022-08-20T02:46:52;96496.66;;;16.92;100.00
54994;BME280;40891;47.242;8.648;2022-08-20T02:49:17;96491.78;;;16.87;100.00
54994;BME280;40891;47.242;8.648;2022-08-20T02:51:43;96483.03;;;16.85;100.00
54994;BME280;40891;47.242;8.648;2022-08-20T02:54:09;96480.19;;;16.79;100.00
54994;BME280;40891;47.242;8.648;2022-08-20T02:56:34;96479.59;;;16.75;100.00
54994;BME280;40891;47.242;8.648;2022-08-20T02:59:00;96474.34;;;16.83;100.00
54994;BME280;40891;47.242;8.648;2022-08-20T03:01:26;96478.06;;;16.74;100.00
54994;BME280;40891;47.242;8.648;2022-08-20T03:03:52;96481.78;;;16.86;100.00
54994;BME280;40891;47.242;8.648;2022-08-20T03:06:21;96472.81;;;16.82;100.00
54994;BME280;40891;47.242;8.648;2022-08-20T03:08:46;96469.38;;;16.72;100.00
54994;BME280;40891;47.242;8.648;2022-08-20T03:11:12;96470.44;;;16.75;100.00
54994;BME280;40891;47.242;8.648;2022-08-20T03:13:37;96472.88;;;16.67;100.00
54994;BME280;40891;47.242;8.648;2022-08-20T03:16:04;96477.28;;;16.74;100.00
54994;BME280;40891;47.242;8.648;2022-08-20T03:18:43;96485.44;;;16.72;100.00
54994;BME280;40891;47.242;8.648;2022-08-20T03:21:09;96478.16;;;16.80;100.00
54994;BME280;40891;47.242;8.648;2022-08-20T03:23:35;96481.94;;;16.77;100.00
54994;BME280;40891;47.242;8.648;2022-08-20T03:26:06;96474.75;;;16.76;100.00
54994;BME280;40891;47.242;8.648;2022-08-20T03:28:32;96476.31;;;16.77;100.00
54994;BME280;40891;47.242;8.648;2022-08-20T03:30:57;96473.56;;;16.82;100.00
54994;BME280;40891;47.242;8.648;2022-08-20T03:33:24;96474.16;;;16.86;100.00
54994;BME280;40891;47.242;8.648;2022-08-20T03:35:49;96473.91;;;16.90;100.00
54994;BME280;40891;47.242;8.648;2022-08-20T03:38:16;96482.16;;;16.93;100.00
54994;BME280;40891;47.242;8.648;2022-08-20T03:40:43;96481.63;;;16.95;100.00
54994;BME280;40891;47.242;8.648;2022-08-20T03:43:10;96476.81;;;16.95;100.00
54994;BME280;40891;47.242;8.648;2022-08-20T03:45:37;96483.19;;;16.96;100.00
54994;BME280;40891;47.242;8.648;2022-08-20T03:48:04;96478.31;;;16.96;100.00
54994;BME280;40891;47.242;8.648;2022-08-20T03:50:32;96482.19;;;16.99;100.00
54994;BME280;40891;47.242;8.648;2022-08-20T03:52:59;96481.13;;;16.96;100.00
54994;BME280;40891;47.242;8.648;2022-08-20T03:55:28;96476.56;;;16.99;100.00
54994;BME280;40891;47.242;8.648;2022-08-20T03:57:59;96480.22;;;17.05;100.00
54994;BME280;40891;47.242;8.648;2022-08-20T04:00:35;96483.88;;;17.11;100.00
54994;BME280;40891;47.242;8.648;2022-08-20T04:03:01;96485.44;;;17.12;100.00
54994;BME280;40891;47.242;8.648;2022-08-20T04:05:28;96489.75;;;17.13;100.00
54994;BME280;40891;47.242;8.648;2022-08-20T04:07:55;96485.97;;;17.16;100.00
54994;BME280;40891;47.242;8.648;2022-08-20T04:10:22;96488.91;;;17.27;100.00
54994;BME280;40891;47.242;8.648;2022-08-20T04:12:48;96490.72;;;17.30;100.00
54994;BME280;40891;47.242;8.648;2022-08-20T04:15:15;96487.03;;;17.44;100.00
54994;BME280;40891;47.242;8.648;2022-08-20T04:17:43;96486.31;;;17.49;100.00
54994;BME280;40891;47.242;8.648;2022-08-20T04:20:11;96490.44;;;17.48;100.00
54994;BME280;40891;47.242;8.648;2022-08-20T04:22:37;96485.88;;;17.77;100.00
54994;BME280;40891;47.242;8.648;2022-08-20T04:25:06;96496.91;;;17.54;100.00
54994;BME280;40891;47.242;8.648;2022-08-20T04:27:35;96500.38;;;17.49;100.00
54994;BME280;40891;47.242;8.648;2022-08-20T04:30:02;96495.00;;;17.46;100.00
54994;BME280;40891;47.242;8.648;2022-08-20T04:32:29;96494.69;;;17.44;100.00
54994;BME280;40891;47.242;8.648;2022-08-20T04:34:54;96493.91;;;17.63;100.00
54994;BME280;40891;47.242;8.648;2022-08-20T04:37:21;96487.47;;;17.57;100.00
54994;BME280;40891;47.242;8.648;2022-08-20T04:39:47;96495.47;;;17.44;100.00
54994;BME280;40891;47.242;8.648;2022-08-20T04:42:34;96499.56;;;17.43;100.00
54994;BME280;40891;47.242;8.648;2022-08-20T04:45:00;96497.19;;;17.36;100.00
54994;BME280;40891;47.242;8.648;2022-08-20T04:47:25;96497.81;;;17.46;100.00
54994;BME280;40891;47.242;8.648;2022-08-20T04:49:50;96498.09;;;17.48;100.00
54994;BME280;40891;47.242;8.648;2022-08-20T04:52:16;96491.28;;;17.54;100.00
54994;BME280;40891;47.242;8.648;2022-08-20T04:54:41;96499.13;;;17.50;100.00
54994;BME280;40891;47.242;8.648;2022-08-20T04:57:07;96496.69;;;17.38;100.00
54994;BME280;40891;47.242;8.648;2022-08-20T04:59:33;96495.81;;;17.26;100.00
54994;BME280;40891;47.242;8.648;2022-08-20T05:01:58;96497.84;;;17.26;100.00
54994;BME280;40891;47.242;8.648;2022-08-20T05:04:24;96495.53;;;17.24;100.00
54994;BME280;40891;47.242;8.648;2022-08-20T05:06:51;96503.97;;;17.24;100.00
54994;BME280;40891;47.242;8.648;2022-08-20T05:09:17;96497.06;;;17.25;100.00
54994;BME280;40891;47.242;8.648;2022-08-20T05:11:42;96505.28;;;17.29;100.00
54994;BME280;40891;47.242;8.648;2022-08-20T05:14:08;96500.22;;;17.33;100.00
54994;BME280;40891;47.242;8.648;2022-08-20T05:16:34;96503.28;;;17.35;100.00
54994;BME280;40891;47.242;8.648;2022-08-20T05:19:03;96500.56;;;17.40;100.00
54994;BME280;40891;47.242;8.648;2022-08-20T05:21:28;96518.75;;;17.45;100.00
54994;BME280;40891;47.242;8.648;2022-08-20T05:23:53;96514.44;;;17.49;100.00
54994;BME280;40891;47.242;8.648;2022-08-20T05:26:19;96516.97;;;17.47;100.00
54994;BME280;40891;47.242;8.648;2022-08-20T05:28:44;96515.78;;;17.54;100.00
54994;BME280;40891;47.242;8.648;2022-08-20T05:31:10;96521.22;;;17.57;100.00
54994;BME280;40891;47.242;8.648;2022-08-20T05:33:37;96529.16;;;17.59;100.00
54994;BME280;40891;47.242;8.648;2022-08-20T05:36:03;96527.66;;;17.63;100.00
54994;BME280;40891;47.242;8.648;2022-08-20T05:38:30;96527.22;;;17.71;100.00
54994;BME280;40891;47.242;8.648;2022-08-20T05:40:56;96523.06;;;17.92;100.00
54994;BME280;40891;47.242;8.648;2022-08-20T05:43:21;96532.06;;;17.96;100.00
54994;BME280;40891;47.242;8.648;2022-08-20T05:45:49;96537.53;;;18.05;100.00
54994;BME280;40891;47.242;8.648;2022-08-20T05:48:20;96527.59;;;18.15;100.00
54994;BME280;40891;47.242;8.648;2022-08-20T05:50:47;96537.94;;;18.29;99.08
54994;BME280;40891;47.242;8.648;2022-08-20T05:53:17;96527.25;;;18.33;97.98
54994;BME280;40891;47.242;8.648;2022-08-20T05:55:42;96527.47;;;18.29;97.44
54994;BME280;40891;47.242;8.648;2022-08-20T05:58:21;96531.69;;;18.45;97.27
54994;BME280;40891;47.242;8.648;2022-08-20T06:00:47;96537.06;;;18.43;97.05
54994;BME280;40891;47.242;8.648;2022-08-20T06:03:13;96541.22;;;18.48;98.04
54994;BME280;40891;47.242;8.648;2022-08-20T06:05:57;96540.44;;;18.47;98.48
54994;BME280;40891;47.242;8.648;2022-08-20T06:08:23;96539.97;;;18.54;98.38
54994;BME280;40891;47.242;8.648;2022-08-20T06:10:49;96532.31;;;18.60;97.79
54994;BME280;40891;47.242;8.648;2022-08-20T06:13:14;96537.47;;;18.62;97.62
54994;BME280;40891;47.242;8.648;2022-08-20T06:15:40;96533.91;;;18.67;98.22
54994;BME280;40891;47.242;8.648;2022-08-20T06:18:06;96536.22;;;18.68;98.12
54994;BME280;40891;47.242;8.648;2022-08-20T06:20:33;96547.97;;;18.61;97.26
54994;BME280;40891;47.242;8.648;2022-08-20T06:22:58;96545.66;;;18.60;98.31
54994;BME280;40891;47.242;8.648;2022-08-20T06:25:23;96552.75;;;18.55;98.35
54994;BME280;40891;47.242;8.648;2022-08-20T06:27:49;96546.66;;;18.62;98.56
54994;BME280;40891;47.242;8.648;2022-08-20T06:30:15;96546.13;;;18.58;99.63
54994;BME280;40891;47.242;8.648;2022-08-20T06:32:41;96548.41;;;18.54;99.49
54994;BME280;40891;47.242;8.648;2022-08-20T06:35:08;96550.06;;;18.72;99.16
54994;BME280;40891;47.242;8.648;2022-08-20T06:37:35;96553.63;;;18.67;99.45
54994;BME280;40891;47.242;8.648;2022-08-20T06:42:30;96559.03;;;18.70;99.75
54994;BME280;40891;47.242;8.648;2022-08-20T06:44:55;96560.03;;;18.67;97.51
54994;BME280;40891;47.242;8.648;2022-08-20T06:47:23;96565.63;;;18.62;98.38
54994;BME280;40891;47.242;8.648;2022-08-20T06:49:48;96567.75;;;18.72;98.40
54994;BME280;40891;47.242;8.648;2022-08-20T06:52:14;96564.34;;;18.63;96.97
54994;BME280;40891;47.242;8.648;2022-08-20T06:54:41;96563.25;;;18.91;95.75
54994;BME280;40891;47.242;8.648;2022-08-20T06:57:07;96557.22;;;19.15;93.20
54994;BME280;40891;47.242;8.648;2022-08-20T06:59:32;96560.16;;;18.89;93.93
54994;BME280;40891;47.242;8.648;2022-08-20T07:01:57;96555.19;;;19.16;92.35
54994;BME280;40891;47.242;8.648;2022-08-20T07:04:23;96556.00;;;19.27;91.69
54994;BME280;40891;47.242;8.648;2022-08-20T07:06:50;96553.41;;;19.18;92.15
54994;BME280;40891;47.242;8.648;2022-08-20T07:09:16;96551.13;;;19.28;93.02
54994;BME280;40891;47.242;8.648;2022-08-20T07:11:41;96558.41;;;19.40;91.31
54994;BME280;40891;47.242;8.648;2022-08-20T07:14:07;96544.78;;;19.38;91.79
54994;BME280;40891;47.242;8.648;2022-08-20T07:16:32;96548.16;;;19.53;91.66
54994;BME280;40891;47.242;8.648;2022-08-20T07:18:57;96548.69;;;19.52;91.81
54994;BME280;40891;47.242;8.648;2022-08-20T07:21:23;96548.69;;;19.52;92.60
54994;BME280;40891;47.242;8.648;2022-08-20T07:23:49;96542.31;;;19.74;91.66
54994;BME280;40891;47.242;8.648;2022-08-20T07:26:15;96546.22;;;19.98;91.42
54994;BME280;40891;47.242;8.648;2022-08-20T07:28:41;96542.13;;;20.16;90.73
54994;BME280;40891;47.242;8.648;2022-08-20T07:31:06;96537.53;;;20.29;89.48
54994;BME280;40891;47.242;8.648;2022-08-20T07:33:50;96539.84;;;20.37;89.46
54994;BME280;40891;47.242;8.648;2022-08-20T07:36:16;96552.69;;;20.32;88.38
54994;BME280;40891;47.242;8.648;2022-08-20T07:38:42;96559.28;;;19.96;90.15
54994;BME280;40891;47.242;8.648;2022-08-20T07:41:11;96550.06;;;19.95;91.24
54994;BME280;40891;47.242;8.648;2022-08-20T07:43:40;96552.63;;;19.82;92.38
54994;BME280;40891;47.242;8.648;2022-08-20T07:46:06;96554.63;;;19.65;92.85
54994;BME280;40891;47.242;8.648;2022-08-20T07:48:35;96552.81;;;19.62;91.60
54994;BME280;40891;47.242;8.648;2022-08-20T07:51:02;96557.94;;;19.69;91.91
54994;BME280;40891;47.242;8.648;2022-08-20T07:53:29;96558.50;;;19.73;92.28
54994;BME280;40891;47.242;8.648;2022-08-20T07:55:55;96556.19;;;19.77;92.25
54994;BME280;40891;47.242;8.648;2022-08-20T07:58:22;96554.44;;;19.96;93.17
54994;BME280;40891;47.242;8.648;2022-08-20T08:00:49;96560.59;;;20.00;93.26
54994;BME280;40891;47.242;8.648;2022-08-20T08:03:15;96563.66;;;20.02;92.41
54994;BME280;40891;47.242;8.648;2022-08-20T08:05:43;96563.44;;;20.06;92.05
54994;BME280;40891;47.242;8.648;2022-08-20T08:08:16;96571.88;;;20.00;92.37
54994;BME280;40891;47.242;8.648;2022-08-20T08:10:45;96571.88;;;20.00;92.75
54994;BME280;40891;47.242;8.648;2022-08-20T08:13:11;96577.25;;;19.93;93.20
54994;BME280;40891;47.242;8.648;2022-08-20T08:15:39;96578.28;;;19.95;95.03
54994;BME280;40891;47.242;8.648;2022-08-20T08:18:20;96580.09;;;19.98;95.89
54994;BME280;40891;47.242;8.648;2022-08-20T08:20:49;96580.59;;;19.91;92.13
54994;BME280;40891;47.242;8.648;2022-08-20T08:23:17;96586.25;;;20.02;91.29
54994;BME280;40891;47.242;8.648;2022-08-20T08:25:42;96586.25;;;20.02;92.39
54994;BME280;40891;47.242;8.648;2022-08-20T08:28:09;96575.22;;;20.21;92.62
54994;BME280;40891;47.242;8.648;2022-08-20T08:30:37;96585.47;;;20.02;92.21
54994;BME280;40891;47.242;8.648;2022-08-20T08:33:04;96582.66;;;20.18;89.95
54994;BME280;40891;47.242;8.648;2022-08-20T08:35:48;96572.22;;;20.47;90.25
54994;BME280;40891;47.242;8.648;2022-08-20T08:38:13;96570.13;;;20.69;89.69
54994;BME280;40891;47.242;8.648;2022-08-20T08:40:39;96574.19;;;20.85;87.03
54994;BME280;40891;47.242;8.648;2022-08-20T08:43:06;96576.78;;;20.94;85.49
54994;BME280;40891;47.242;8.648;2022-08-20T08:45:40;96574.19;;;21.07;82.50
54994;BME280;40891;47.242;8.648;2022-08-20T08:48:16;96575.19;;;21.04;84.19
54994;BME280;40891;47.242;8.648;2022-08-20T08:50:45;96579.81;;;21.18;84.36
54994;BME280;40891;47.242;8.648;2022-08-20T08:53:23;96577.41;;;21.44;82.70
54994;BME280;40891;47.242;8.648;2022-08-20T08:55:50;96566.06;;;21.55;83.41
54994;BME280;40891;47.242;8.648;2022-08-20T08:58:15;96567.28;;;21.65;81.57
54994;BME280;40891;47.242;8.648;2022-08-20T09:00:40;96572.91;;;21.71;79.58
54994;BME280;40891;47.242;8.648;2022-08-20T09:03:13;96569.09;;;21.63;78.28
54994;BME280;40891;47.242;8.648;2022-08-20T09:05:51;96578.81;;;21.10;79.79
54994;BME280;40891;47.242;8.648;2022-08-20T09:08:22;96565.44;;;20.99;80.30
54994;BME280;40891;47.242;8.648;2022-08-20T09:10:48;96581.69;;;20.66;82.41
54994;BME280;40891;47.242;8.648;2022-08-20T09:13:14;96569.31;;;20.85;82.35
54994;BME280;40891;47.242;8.648;2022-08-20T09:15:39;96571.13;;;20.94;81.12
54994;BME280;40891;47.242;8.648;2022-08-20T09:18:05;96572.38;;;21.04;79.87
54994;BME280;40891;47.242;8.648;2022-08-20T09:20:30;96568.72;;;21.31;80.19
54994;BME280;40891;47.242;8.648;2022-08-20T09:22:56;96572.75;;;21.52;80.20
54994;BME280;40891;47.242;8.648;2022-08-20T09:25:21;96568.34;;;21.62;78.40
54994;BME280;40891;47.242;8.648;2022-08-20T09:27:47;96563.47;;;21.57;78.51
54994;BME280;40891;47.242;8.648;2022-08-20T09:30:14;96571.72;;;21.55;77.99
54994;BME280;40891;47.242;8.648;2022-08-20T09:32:40;96577.38;;;21.55;77.89
54994;BME280;40891;47.242;8.648;2022-08-20T09:35:06;96569.31;;;21.70;76.44
54994;BME280;40891;47.242;8.648;2022-08-20T09:37:31;96568.81;;;21.66;78.79
54994;BME280;40891;47.242;8.648;2022-08-20T09:39:57;96579.19;;;21.53;77.40
54994;BME280;40891;47.242;8.648;2022-08-20T09:42:28;96573.13;;;21.79;76.46
54994;BME280;40891;47.242;8.648;2022-08-20T09:44:54;96571.19;;;22.09;78.13
54994;BME280;40891;47.242;8.648;2022-08-20T09:47:19;96573.91;;;22.25;75.97
54994;BME280;40891;47.242;8.648;2022-08-20T09:49:45;96573.13;;;22.25;76.47
54994;BME280;40891;47.242;8.648;2022-08-20T09:52:23;96567.50;;;22.19;77.73
54994;BME280;40891;47.242;8.648;2022-08-20T09:54:51;96564.38;;;22.23;77.04
54994;BME280;40891;47.242;8.648;2022-08-20T09:57:17;96561.97;;;22.38;75.07
54994;BME280;40891;47.242;8.648;2022-08-20T09:59:45;96567.06;;;22.45;73.82
54994;BME280;40891;47.242;8.648;2022-08-20T10:02:12;96565.91;;;22.59;74.94
54994;BME280;40891;47.242;8.648;2022-08-20T10:04:38;96562.88;;;22.52;74.17
54994;BME280;40891;47.242;8.648;2022-08-20T10:07:06;96564.34;;;22.64;73.56
54994;BME280;40891;47.242;8.648;2022-08-20T10:09:33;96559.81;;;22.79;72.77
54994;BME280;40891;47.242;8.648;2022-08-20T10:11:59;96563.38;;;22.85;72.70
54994;BME280;40891;47.242;8.648;2022-08-20T10:14:25;96553.25;;;23.14;70.28
54994;BME280;40891;47.242;8.648;2022-08-20T10:16:57;96558.84;;;23.68;70.62
54994;BME280;40891;47.242;8.648;2022-08-20T10:19:23;96550.31;;;23.87;68.75
54994;BME280;40891;47.242;8.648;2022-08-20T10:21:50;96551.31;;;23.89;68.08
54994;BME280;40891;47.242;8.648;2022-08-20T10:24:16;96550.16;;;24.16;68.39
54994;BME280;40891;47.242;8.648;2022-08-20T10:26:42;96545.56;;;24.13;69.23
54994;BME280;40891;47.242;8.648;2022-08-20T10:29:07;96537.22;;;24.34;69.47
54994;BME280;40891;47.242;8.648;2022-08-20T10:31:33;96539.44;;;24.41;68.12
54994;BME280;40891;47.242;8.648;2022-08-20T10:33:58;96542.31;;;24.22;68.03
54994;BME280;40891;47.242;8.648;2022-08-20T10:36:23;96550.78;;;24.73;68.53
54994;BME280;40891;47.242;8.648;2022-08-20T10:38:49;96541.56;;;25.38;64.39
54994;BME280;40891;47.242;8.648;2022-08-20T10:41:14;96534.47;;;25.57;61.19
54994;BME280;40891;47.242;8.648;2022-08-20T10:43:40;96538.22;;;25.99;59.61
54994;BME280;40891;47.242;8.648;2022-08-20T10:46:05;96530.84;;;26.17;56.99
54994;BME280;40891;47.242;8.648;2022-08-20T10:48:31;96531.91;;;26.48;56.64
54994;BME280;40891;47.242;8.648;2022-08-20T10:50:56;96527.31;;;27.78;53.84
54994;BME280;40891;47.242;8.648;2022-08-20T10:53:21;96527.22;;;29.33;49.55
54994;BME280;40891;47.242;8.648;2022-08-20T10:55:47;96523.59;;;28.64;48.28
54994;BME280;40891;47.242;8.648;2022-08-20T10:58:12;96536.34;;;29.54;47.86
54994;BME280;40891;47.242;8.648;2022-08-20T11:00:39;96532.75;;;28.70;49.23
54994;BME280;40891;47.242;8.648;2022-08-20T11:03:05;96532.69;;;28.40;48.84
54994;BME280;40891;47.242;8.648;2022-08-20T11:05:30;96538.00;;;28.28;50.48
54994;BME280;40891;47.242;8.648;2022-08-20T11:07:56;96534.69;;;28.02;49.33
54994;BME280;40891;47.242;8.648;2022-08-20T11:10:23;96539.31;;;27.13;51.76
54994;BME280;40891;47.242;8.648;2022-08-20T11:12:50;96529.63;;;27.16;54.70
54994;BME280;40891;47.242;8.648;2022-08-20T11:15:15;96529.06;;;27.17;55.77
54994;BME280;40891;47.242;8.648;2022-08-20T11:17:42;96526.09;;;27.58;53.42
54994;BME280;40891;47.242;8.648;2022-08-20T11:20:09;96525.50;;;27.52;53.62
54994;BME280;40891;47.242;8.648;2022-08-20T11:22:35;96523.72;;;27.42;53.43
54994;BME280;40891;47.242;8.648;2022-08-20T11:25:01;96523.41;;;27.25;54.73
54994;BME280;40891;47.242;8.648;2022-08-20T11:27:30;96522.38;;;26.86;55.42
54994;BME280;40891;47.242;8.648;2022-08-20T11:29:55;96527.50;;;26.26;58.25
54994;BME280;40891;47.242;8.648;2022-08-20T11:32:21;96532.28;;;25.97;59.06
54994;BME280;40891;47.242;8.648;2022-08-20T11:34:47;96525.47;;;25.40;61.64
54994;BME280;40891;47.242;8.648;2022-08-20T11:37:13;96531.16;;;25.01;64.25
54994;BME280;40891;47.242;8.648;2022-08-20T11:39:40;96534.41;;;24.79;65.89
54994;BME280;40891;47.242;8.648;2022-08-20T11:42:05;96528.34;;;24.69;66.78
54994;BME280;40891;47.242;8.648;2022-08-20T11:44:30;96528.72;;;24.92;66.14
54994;BME280;40891;47.242;8.648;2022-08-20T11:46:59;96530.06;;;24.91;68.73
54994;BME280;40891;47.242;8.648;2022-08-20T11:49:28;96535.97;;;24.48;70.39
54994;BME280;40891;47.242;8.648;2022-08-20T11:51:53;96540.09;;;24.47;72.01
54994;BME280;40891;47.242;8.648;2022-08-20T11:54:18;96537.25;;;23.97;76.54
54994;BME280;40891;47.242;8.648;2022-08-20T11:56:44;96534.94;;;23.58;80.46
54994;BME280;40891;47.242;8.648;2022-08-20T11:59:09;96534.09;;;23.44;81.14
54994;BME280;40891;47.242;8.648;2022-08-20T12:01:35;96533.19;;;23.31;78.87
54994;BME280;40891;47.242;8.648;2022-08-20T12:04:00;96539.47;;;23.24;79.39
54994;BME280;40891;47.242;8.648;2022-08-20T12:06:25;96540.00;;;23.22;80.90
54994;BME280;40891;47.242;8.648;2022-08-20T12:08:51;96541.00;;;23.25;80.16
54994;BME280;40891;47.242;8.648;2022-08-20T12:11:16;96539.56;;;23.18;77.54
54994;BME280;40891;47.242;8.648;2022-08-20T12:13:41;96533.69;;;23.11;80.39
54994;BME280;40891;47.242;8.648;2022-08-20T12:16:06;96533.53;;;23.03;78.88
54994;BME280;40891;47.242;8.648;2022-08-20T12:18:32;96536.06;;;22.82;81.66
54994;BME280;40891;47.242;8.648;2022-08-20T12:20:58;96546.28;;;22.31;80.47
54994;BME280;40891;47.242;8.648;2022-08-20T12:23:23;96543.81;;;22.52;82.37
54994;BME280;40891;47.242;8.648;2022-08-20T12:25:49;96530.44;;;22.77;82.17
54994;BME280;40891;47.242;8.648;2022-08-20T12:28:14;96533.69;;;22.86;81.25
54994;BME280;40891;47.242;8.648;2022-08-20T12:30:40;96531.81;;;23.19;78.84
54994;BME280;40891;47.242;8.648;2022-08-20T12:33:06;96525.03;;;23.46;77.19
54994;BME280;40891;47.242;8.648;2022-08-20T12:35:31;96517.00;;;23.87;77.14
54994;BME280;40891;47.242;8.648;2022-08-20T12:37:57;96522.50;;;23.98;73.03
54994;BME280;40891;47.242;8.648;2022-08-20T12:40:25;96527.41;;;24.16;72.97
54994;BME280;40891;47.242;8.648;2022-08-20T12:42:50;96532.16;;;24.59;71.73
54994;BME280;40891;47.242;8.648;2022-08-20T12:45:16;96519.78;;;25.14;71.28
54994;BME280;40891;47.242;8.648;2022-08-20T12:47:44;96516.03;;;25.72;68.94
54994;BME280;40891;47.242;8.648;2022-08-20T12:50:13;96503.03;;;26.92;65.09
54994;BME280;40891;47.242;8.648;2022-08-20T12:52:39;96500.78;;;27.62;59.60
54994;BME280;40891;47.242;8.648;2022-08-20T12:55:06;96501.91;;;27.59;59.72
54994;BME280;40891;47.242;8.648;2022-08-20T12:57:41;96503.38;;;28.92;58.41
54994;BME280;40891;47.242;8.648;2022-08-20T13:00:24;96504.13;;;30.33;54.91
54994;BME280;40891;47.242;8.648;2022-08-20T13:02:52;96498.25;;;30.16;53.27
54994;BME280;40891;47.242;8.648;2022-08-20T13:05:18;96494.91;;;29.47;53.49
54994;BME280;40891;47.242;8.648;2022-08-20T13:07:45;96498.22;;;29.21;54.03
54994;BME280;40891;47.242;8.648;2022-08-20T13:10:13;96498.94;;;28.54;55.13